<?xml version="1.0" encoding="UTF-8" standalone="no" ?>
<gpx xmlns="http://www.topografix.com/GPX/1/1" xmlns:xsi="http://www.w3.org/2001/XMLSchema-instance" xsi:schemaLocation="http://www.topografix.com/GPX/1/1 http://www.topografix.com/GPX/1/1/gpx.xsd" version="1.1" creator="VisuGPX - https://www.visugpx.com">
  <metadata>
    <name>Les Saisies-Col de la Lézette-Plan Chardon</name>
    <desc><![CDATA[Carte IGN TOP25 : 3531OT - Megève/Col des Aravis.
Niveau F.
Départ des Saisies.

]]></desc>
  </metadata>
  <trk>
    <name><![CDATA[Les Saisies-Col de la Lézette-Plan Chardon]]></name>
    <cmt><![CDATA[Carte IGN TOP25 : 3531OT - Megève/Col des Aravis
Départ des Saisies.]]></cmt>
    <trkseg>
      <trkpt lat="45.76043" lon="6.53374">
        <ele>1657</ele>
        <time>2021-12-27T10:17:18.282Z</time>
      </trkpt>
      <trkpt lat="45.76033" lon="6.53358">
        <ele>1657</ele>
        <time>2021-12-27T10:17:36.244Z</time>
      </trkpt>
      <trkpt lat="45.76038" lon="6.53383">
        <ele>1657</ele>
        <time>2021-12-27T10:17:58.538Z</time>
      </trkpt>
      <trkpt lat="45.75996" lon="6.5343">
        <ele>1659</ele>
        <time>2021-12-27T10:19:01.062Z</time>
      </trkpt>
      <trkpt lat="45.7599" lon="6.53462">
        <ele>1659</ele>
        <time>2021-12-27T10:19:26.535Z</time>
      </trkpt>
      <trkpt lat="45.75992" lon="6.53478">
        <ele>1659</ele>
        <time>2021-12-27T10:19:39.098Z</time>
      </trkpt>
      <trkpt lat="45.75972" lon="6.53511">
        <ele>1659</ele>
        <time>2021-12-27T10:20:12.900Z</time>
      </trkpt>
      <trkpt lat="45.75945" lon="6.53576">
        <ele>1659</ele>
        <time>2021-12-27T10:21:11.730Z</time>
      </trkpt>
      <trkpt lat="45.75922" lon="6.5359">
        <ele>1659</ele>
        <time>2021-12-27T10:21:43.128Z</time>
      </trkpt>
      <trkpt lat="45.75933" lon="6.53617">
        <ele>1660</ele>
        <time>2021-12-27T10:22:09.718Z</time>
      </trkpt>
      <trkpt lat="45.7594" lon="6.53702">
        <ele>1666</ele>
        <time>2021-12-27T10:23:32.320Z</time>
      </trkpt>
      <trkpt lat="45.7595" lon="6.53732">
        <ele>1669</ele>
        <time>2021-12-27T10:24:03.834Z</time>
      </trkpt>
      <trkpt lat="45.75947" lon="6.53765">
        <ele>1671</ele>
        <time>2021-12-27T10:24:32.403Z</time>
      </trkpt>
      <trkpt lat="45.75925" lon="6.53863">
        <ele>1675</ele>
        <time>2021-12-27T10:26:00.780Z</time>
      </trkpt>
      <trkpt lat="45.75917" lon="6.53917">
        <ele>1677</ele>
        <time>2021-12-27T10:26:49.923Z</time>
      </trkpt>
      <trkpt lat="45.75921" lon="6.54028">
        <ele>1685</ele>
        <time>2021-12-27T10:28:43.301Z</time>
      </trkpt>
      <trkpt lat="45.75933" lon="6.54074">
        <ele>1691</ele>
        <time>2021-12-27T10:29:36.180Z</time>
      </trkpt>
      <trkpt lat="45.75942" lon="6.54126">
        <ele>1695</ele>
        <time>2021-12-27T10:30:24.816Z</time>
      </trkpt>
      <trkpt lat="45.75935" lon="6.54182">
        <ele>1698</ele>
        <time>2021-12-27T10:31:14.548Z</time>
      </trkpt>
      <trkpt lat="45.75941" lon="6.54249">
        <ele>1701</ele>
        <time>2021-12-27T10:32:13.562Z</time>
      </trkpt>
      <trkpt lat="45.75937" lon="6.54301">
        <ele>1704</ele>
        <time>2021-12-27T10:33:07.723Z</time>
      </trkpt>
      <trkpt lat="45.75962" lon="6.54499">
        <ele>1724</ele>
        <time>2021-12-27T10:36:57.109Z</time>
      </trkpt>
      <trkpt lat="45.75965" lon="6.54538">
        <ele>1730</ele>
        <time>2021-12-27T10:37:44.013Z</time>
      </trkpt>
      <trkpt lat="45.75954" lon="6.54664">
        <ele>1744</ele>
        <time>2021-12-27T10:40:04.254Z</time>
      </trkpt>
      <trkpt lat="45.7596" lon="6.54733">
        <ele>1750</ele>
        <time>2021-12-27T10:41:13.781Z</time>
      </trkpt>
      <trkpt lat="45.76001" lon="6.54852">
        <ele>1761</ele>
        <time>2021-12-27T10:43:18.478Z</time>
      </trkpt>
      <trkpt lat="45.76012" lon="6.54912">
        <ele>1764</ele>
        <time>2021-12-27T10:44:12.821Z</time>
      </trkpt>
      <trkpt lat="45.76017" lon="6.54963">
        <ele>1767</ele>
        <time>2021-12-27T10:45:01.066Z</time>
      </trkpt>
      <trkpt lat="45.76031" lon="6.5505">
        <ele>1774</ele>
        <time>2021-12-27T10:46:29.116Z</time>
      </trkpt>
      <trkpt lat="45.76071" lon="6.55129">
        <ele>1782</ele>
        <time>2021-12-27T10:47:56.297Z</time>
      </trkpt>
      <trkpt lat="45.76079" lon="6.55192">
        <ele>1784</ele>
        <time>2021-12-27T10:48:49.212Z</time>
      </trkpt>
      <trkpt lat="45.76074" lon="6.55213">
        <ele>1784</ele>
        <time>2021-12-27T10:49:06.169Z</time>
      </trkpt>
      <trkpt lat="45.76067" lon="6.55228">
        <ele>1784</ele>
        <time>2021-12-27T10:49:21.081Z</time>
      </trkpt>
      <trkpt lat="45.7605" lon="6.55242">
        <ele>1784</ele>
        <time>2021-12-27T10:49:42.444Z</time>
      </trkpt>
      <trkpt lat="45.76056" lon="6.55254">
        <ele>1783</ele>
        <time>2021-12-27T10:49:53.991Z</time>
      </trkpt>
      <trkpt lat="45.76057" lon="6.55282">
        <ele>1783</ele>
        <time>2021-12-27T10:50:15.608Z</time>
      </trkpt>
      <trkpt lat="45.76061" lon="6.55255">
        <ele>1783</ele>
        <time>2021-12-27T10:50:37.073Z</time>
      </trkpt>
      <trkpt lat="45.76153" lon="6.55347">
        <ele>1780</ele>
        <time>2021-12-27T10:52:42.088Z</time>
      </trkpt>
      <trkpt lat="45.76199" lon="6.55422">
        <ele>1776</ele>
        <time>2021-12-27T10:53:59.570Z</time>
      </trkpt>
      <trkpt lat="45.76209" lon="6.55424">
        <ele>1775</ele>
        <time>2021-12-27T10:54:11.404Z</time>
      </trkpt>
      <trkpt lat="45.76247" lon="6.55392">
        <ele>1777</ele>
        <time>2021-12-27T10:55:03.800Z</time>
      </trkpt>
      <trkpt lat="45.76277" lon="6.55296">
        <ele>1780</ele>
        <time>2021-12-27T10:56:30.325Z</time>
      </trkpt>
      <trkpt lat="45.76297" lon="6.55268">
        <ele>1780</ele>
        <time>2021-12-27T10:57:01.614Z</time>
      </trkpt>
      <trkpt lat="45.76309" lon="6.55226">
        <ele>1780</ele>
        <time>2021-12-27T10:57:36.766Z</time>
      </trkpt>
      <trkpt lat="45.76356" lon="6.55195">
        <ele>1777</ele>
        <time>2021-12-27T10:58:34.551Z</time>
      </trkpt>
      <trkpt lat="45.76374" lon="6.55197">
        <ele>1776</ele>
        <time>2021-12-27T10:58:55.338Z</time>
      </trkpt>
      <trkpt lat="45.76404" lon="6.55235">
        <ele>1773</ele>
        <time>2021-12-27T10:59:40.216Z</time>
      </trkpt>
      <trkpt lat="45.76445" lon="6.55291">
        <ele>1770</ele>
        <time>2021-12-27T11:00:42.794Z</time>
      </trkpt>
      <trkpt lat="45.7649" lon="6.5532">
        <ele>1771</ele>
        <time>2021-12-27T11:01:39.996Z</time>
      </trkpt>
      <trkpt lat="45.76502" lon="6.55333">
        <ele>1771</ele>
        <time>2021-12-27T11:01:57.205Z</time>
      </trkpt>
      <trkpt lat="45.76552" lon="6.55342">
        <ele>1772</ele>
        <time>2021-12-27T11:02:52.684Z</time>
      </trkpt>
      <trkpt lat="45.76589" lon="6.55361">
        <ele>1770</ele>
        <time>2021-12-27T11:03:36.294Z</time>
      </trkpt>
      <trkpt lat="45.76615" lon="6.55365">
        <ele>1769</ele>
        <time>2021-12-27T11:04:05.725Z</time>
      </trkpt>
      <trkpt lat="45.76663" lon="6.55356">
        <ele>1767</ele>
        <time>2021-12-27T11:04:59.722Z</time>
      </trkpt>
      <trkpt lat="45.76723" lon="6.55292">
        <ele>1770</ele>
        <time>2021-12-27T11:06:26.133Z</time>
      </trkpt>
      <trkpt lat="45.76751" lon="6.55249">
        <ele>1769</ele>
        <time>2021-12-27T11:07:13.409Z</time>
      </trkpt>
      <trkpt lat="45.76761" lon="6.55227">
        <ele>1766</ele>
        <time>2021-12-27T11:07:34.774Z</time>
      </trkpt>
      <trkpt lat="45.76773" lon="6.55216">
        <ele>1764</ele>
        <time>2021-12-27T11:07:53.073Z</time>
      </trkpt>
      <trkpt lat="45.76786" lon="6.55214">
        <ele>1762</ele>
        <time>2021-12-27T11:08:07.930Z</time>
      </trkpt>
      <trkpt lat="45.76798" lon="6.55227">
        <ele>1760</ele>
        <time>2021-12-27T11:08:24.017Z</time>
      </trkpt>
      <trkpt lat="45.76877" lon="6.55265">
        <ele>1761</ele>
        <time>2021-12-27T11:09:57.969Z</time>
      </trkpt>
      <trkpt lat="45.76896" lon="6.5525">
        <ele>1762</ele>
        <time>2021-12-27T11:10:22.207Z</time>
      </trkpt>
      <trkpt lat="45.76929" lon="6.55255">
        <ele>1761</ele>
        <time>2021-12-27T11:10:58.842Z</time>
      </trkpt>
      <trkpt lat="45.76956" lon="6.5528">
        <ele>1762</ele>
        <time>2021-12-27T11:11:41.189Z</time>
      </trkpt>
      <trkpt lat="45.76975" lon="6.55283">
        <ele>1764</ele>
        <time>2021-12-27T11:12:06.148Z</time>
      </trkpt>
      <trkpt lat="45.76997" lon="6.55268">
        <ele>1768</ele>
        <time>2021-12-27T11:12:40.396Z</time>
      </trkpt>
      <trkpt lat="45.7705" lon="6.55175">
        <ele>1777</ele>
        <time>2021-12-27T11:14:17.454Z</time>
      </trkpt>
      <trkpt lat="45.77065" lon="6.55166">
        <ele>1776</ele>
        <time>2021-12-27T11:14:35.189Z</time>
      </trkpt>
      <trkpt lat="45.77162" lon="6.55201">
        <ele>1771</ele>
        <time>2021-12-27T11:16:26.440Z</time>
      </trkpt>
      <trkpt lat="45.77203" lon="6.55209">
        <ele>1774</ele>
        <time>2021-12-27T11:17:20.461Z</time>
      </trkpt>
      <trkpt lat="45.77212" lon="6.55199">
        <ele>1775</ele>
        <time>2021-12-27T11:17:34.855Z</time>
      </trkpt>
      <trkpt lat="45.77281" lon="6.55177">
        <ele>1782</ele>
        <time>2021-12-27T11:18:59.732Z</time>
      </trkpt>
      <trkpt lat="45.77343" lon="6.55148">
        <ele>1781</ele>
        <time>2021-12-27T11:20:12.775Z</time>
      </trkpt>
      <trkpt lat="45.77426" lon="6.55119">
        <ele>1773</ele>
        <time>2021-12-27T11:21:47.817Z</time>
      </trkpt>
      <trkpt lat="45.77343" lon="6.55148">
        <ele>1780</ele>
        <time>2021-12-27T11:24:06.919Z</time>
      </trkpt>
      <trkpt lat="45.77329" lon="6.55143">
        <ele>1785</ele>
        <time>2021-12-27T11:24:34.912Z</time>
      </trkpt>
      <trkpt lat="45.77314" lon="6.55133">
        <ele>1791</ele>
        <time>2021-12-27T11:25:27.257Z</time>
      </trkpt>
      <trkpt lat="45.77322" lon="6.5507">
        <ele>1807</ele>
        <time>2021-12-27T11:27:25.535Z</time>
      </trkpt>
      <trkpt lat="45.77285" lon="6.55077">
        <ele>1815</ele>
        <time>2021-12-27T11:28:28.642Z</time>
      </trkpt>
      <trkpt lat="45.77268" lon="6.5506">
        <ele>1818</ele>
        <time>2021-12-27T11:29:02.256Z</time>
      </trkpt>
      <trkpt lat="45.77255" lon="6.55066">
        <ele>1819</ele>
        <time>2021-12-27T11:29:19.348Z</time>
      </trkpt>
      <trkpt lat="45.77246" lon="6.5506">
        <ele>1819</ele>
        <time>2021-12-27T11:29:31.054Z</time>
      </trkpt>
      <trkpt lat="45.7724" lon="6.55044">
        <ele>1820</ele>
        <time>2021-12-27T11:29:45.978Z</time>
      </trkpt>
      <trkpt lat="45.7723" lon="6.55037">
        <ele>1820</ele>
        <time>2021-12-27T11:29:59.081Z</time>
      </trkpt>
      <trkpt lat="45.77207" lon="6.55038">
        <ele>1820</ele>
        <time>2021-12-27T11:30:24.527Z</time>
      </trkpt>
      <trkpt lat="45.77197" lon="6.55004">
        <ele>1819</ele>
        <time>2021-12-27T11:30:54.351Z</time>
      </trkpt>
      <trkpt lat="45.77182" lon="6.54981">
        <ele>1817</ele>
        <time>2021-12-27T11:31:19.263Z</time>
      </trkpt>
      <trkpt lat="45.77165" lon="6.54968">
        <ele>1815</ele>
        <time>2021-12-27T11:31:41.922Z</time>
      </trkpt>
      <trkpt lat="45.77162" lon="6.54955">
        <ele>1814</ele>
        <time>2021-12-27T11:31:52.806Z</time>
      </trkpt>
      <trkpt lat="45.77151" lon="6.54938">
        <ele>1813</ele>
        <time>2021-12-27T11:32:11.088Z</time>
      </trkpt>
      <trkpt lat="45.77142" lon="6.5494">
        <ele>1812</ele>
        <time>2021-12-27T11:32:23.042Z</time>
      </trkpt>
      <trkpt lat="45.7713" lon="6.54934">
        <ele>1812</ele>
        <time>2021-12-27T11:32:39.378Z</time>
      </trkpt>
      <trkpt lat="45.77127" lon="6.54921">
        <ele>1813</ele>
        <time>2021-12-27T11:32:52.605Z</time>
      </trkpt>
      <trkpt lat="45.77085" lon="6.54891">
        <ele>1822</ele>
        <time>2021-12-27T11:34:06.168Z</time>
      </trkpt>
      <trkpt lat="45.77" lon="6.54914">
        <ele>1832</ele>
        <time>2021-12-27T11:35:57.770Z</time>
      </trkpt>
      <trkpt lat="45.76962" lon="6.54894">
        <ele>1834</ele>
        <time>2021-12-27T11:36:48.631Z</time>
      </trkpt>
      <trkpt lat="45.76924" lon="6.54909">
        <ele>1837</ele>
        <time>2021-12-27T11:37:37.093Z</time>
      </trkpt>
      <trkpt lat="45.76902" lon="6.54898">
        <ele>1838</ele>
        <time>2021-12-27T11:38:04.791Z</time>
      </trkpt>
      <trkpt lat="45.76855" lon="6.54866">
        <ele>1839</ele>
        <time>2021-12-27T11:39:07.198Z</time>
      </trkpt>
      <trkpt lat="45.7678" lon="6.54832">
        <ele>1845</ele>
        <time>2021-12-27T11:40:49.533Z</time>
      </trkpt>
      <trkpt lat="45.76749" lon="6.5484">
        <ele>1849</ele>
        <time>2021-12-27T11:41:28.133Z</time>
      </trkpt>
      <trkpt lat="45.76738" lon="6.54836">
        <ele>1850</ele>
        <time>2021-12-27T11:41:42.361Z</time>
      </trkpt>
      <trkpt lat="45.76755" lon="6.54804">
        <ele>1849</ele>
        <time>2021-12-27T11:42:15.018Z</time>
      </trkpt>
      <trkpt lat="45.7675" lon="6.54784">
        <ele>1848</ele>
        <time>2021-12-27T11:42:32.850Z</time>
      </trkpt>
      <trkpt lat="45.76737" lon="6.54773">
        <ele>1845</ele>
        <time>2021-12-27T11:42:51.554Z</time>
      </trkpt>
      <trkpt lat="45.76714" lon="6.54775">
        <ele>1842</ele>
        <time>2021-12-27T11:43:19.109Z</time>
      </trkpt>
      <trkpt lat="45.76673" lon="6.54801">
        <ele>1838</ele>
        <time>2021-12-27T11:44:10.959Z</time>
      </trkpt>
      <trkpt lat="45.76622" lon="6.54849">
        <ele>1833</ele>
        <time>2021-12-27T11:45:23.263Z</time>
      </trkpt>
      <trkpt lat="45.76576" lon="6.54855">
        <ele>1827</ele>
        <time>2021-12-27T11:46:18.760Z</time>
      </trkpt>
      <trkpt lat="45.76543" lon="6.54841">
        <ele>1823</ele>
        <time>2021-12-27T11:46:58.911Z</time>
      </trkpt>
      <trkpt lat="45.76494" lon="6.54904">
        <ele>1818</ele>
        <time>2021-12-27T11:48:14.877Z</time>
      </trkpt>
      <trkpt lat="45.76442" lon="6.5489">
        <ele>1813</ele>
        <time>2021-12-27T11:49:17.261Z</time>
      </trkpt>
      <trkpt lat="45.76423" lon="6.54881">
        <ele>1810</ele>
        <time>2021-12-27T11:49:41.085Z</time>
      </trkpt>
      <trkpt lat="45.76386" lon="6.54891">
        <ele>1806</ele>
        <time>2021-12-27T11:50:26.115Z</time>
      </trkpt>
      <trkpt lat="45.76358" lon="6.5489">
        <ele>1804</ele>
        <time>2021-12-27T11:50:56.502Z</time>
      </trkpt>
      <trkpt lat="45.76333" lon="6.54923">
        <ele>1803</ele>
        <time>2021-12-27T11:51:34.666Z</time>
      </trkpt>
      <trkpt lat="45.76232" lon="6.55021">
        <ele>1797</ele>
        <time>2021-12-27T11:53:51.918Z</time>
      </trkpt>
      <trkpt lat="45.7617" lon="6.55061">
        <ele>1791</ele>
        <time>2021-12-27T11:55:10.314Z</time>
      </trkpt>
      <trkpt lat="45.76125" lon="6.551">
        <ele>1787</ele>
        <time>2021-12-27T11:56:09.228Z</time>
      </trkpt>
      <trkpt lat="45.76101" lon="6.5515">
        <ele>1785</ele>
        <time>2021-12-27T11:56:56.843Z</time>
      </trkpt>
      <trkpt lat="45.76076" lon="6.55222">
        <ele>1783</ele>
        <time>2021-12-27T11:57:58.672Z</time>
      </trkpt>
      <trkpt lat="45.76065" lon="6.55235">
        <ele>1783</ele>
        <time>2021-12-27T11:58:14.719Z</time>
      </trkpt>
      <trkpt lat="45.76057" lon="6.55282">
        <ele>1783</ele>
        <time>2021-12-27T11:58:52.473Z</time>
      </trkpt>
      <trkpt lat="45.76056" lon="6.55254">
        <ele>1783</ele>
        <time>2021-12-27T11:59:14.090Z</time>
      </trkpt>
      <trkpt lat="45.7605" lon="6.5524">
        <ele>1783</ele>
        <time>2021-12-27T11:59:26.946Z</time>
      </trkpt>
      <trkpt lat="45.76067" lon="6.55228">
        <ele>1783</ele>
        <time>2021-12-27T11:59:47.541Z</time>
      </trkpt>
      <trkpt lat="45.76074" lon="6.55213">
        <ele>1784</ele>
        <time>2021-12-27T12:00:02.453Z</time>
      </trkpt>
      <trkpt lat="45.76079" lon="6.55192">
        <ele>1783</ele>
        <time>2021-12-27T12:00:18.777Z</time>
      </trkpt>
      <trkpt lat="45.76071" lon="6.55129">
        <ele>1782</ele>
        <time>2021-12-27T12:01:10.878Z</time>
      </trkpt>
      <trkpt lat="45.76031" lon="6.5505">
        <ele>1774</ele>
        <time>2021-12-27T12:02:32.211Z</time>
      </trkpt>
      <trkpt lat="45.76017" lon="6.54963">
        <ele>1767</ele>
        <time>2021-12-27T12:03:46.076Z</time>
      </trkpt>
      <trkpt lat="45.76012" lon="6.54912">
        <ele>1764</ele>
        <time>2021-12-27T12:04:27.505Z</time>
      </trkpt>
      <trkpt lat="45.76001" lon="6.54852">
        <ele>1761</ele>
        <time>2021-12-27T12:05:18.423Z</time>
      </trkpt>
      <trkpt lat="45.7596" lon="6.54733">
        <ele>1750</ele>
        <time>2021-12-27T12:07:11.052Z</time>
      </trkpt>
      <trkpt lat="45.75954" lon="6.54664">
        <ele>1744</ele>
        <time>2021-12-27T12:08:11.538Z</time>
      </trkpt>
      <trkpt lat="45.75965" lon="6.54538">
        <ele>1730</ele>
        <time>2021-12-27T12:10:11.718Z</time>
      </trkpt>
      <trkpt lat="45.75962" lon="6.54499">
        <ele>1724</ele>
        <time>2021-12-27T12:10:46.495Z</time>
      </trkpt>
      <trkpt lat="45.75937" lon="6.54301">
        <ele>1704</ele>
        <time>2021-12-27T12:13:39.298Z</time>
      </trkpt>
      <trkpt lat="45.75941" lon="6.54249">
        <ele>1701</ele>
        <time>2021-12-27T12:14:20.698Z</time>
      </trkpt>
      <trkpt lat="45.75935" lon="6.54182">
        <ele>1698</ele>
        <time>2021-12-27T12:15:13.918Z</time>
      </trkpt>
      <trkpt lat="45.75942" lon="6.54126">
        <ele>1695</ele>
        <time>2021-12-27T12:16:00.253Z</time>
      </trkpt>
      <trkpt lat="45.75933" lon="6.54074">
        <ele>1691</ele>
        <time>2021-12-27T12:16:46.843Z</time>
      </trkpt>
      <trkpt lat="45.75921" lon="6.54028">
        <ele>1685</ele>
        <time>2021-12-27T12:17:28.668Z</time>
      </trkpt>
      <trkpt lat="45.75917" lon="6.53917">
        <ele>1677</ele>
        <time>2021-12-27T12:18:58.458Z</time>
      </trkpt>
      <trkpt lat="45.75925" lon="6.53863">
        <ele>1675</ele>
        <time>2021-12-27T12:19:40.991Z</time>
      </trkpt>
      <trkpt lat="45.75947" lon="6.53765">
        <ele>1671</ele>
        <time>2021-12-27T12:21:02.310Z</time>
      </trkpt>
      <trkpt lat="45.7595" lon="6.53732">
        <ele>1669</ele>
        <time>2021-12-27T12:21:29.832Z</time>
      </trkpt>
      <trkpt lat="45.7594" lon="6.53702">
        <ele>1666</ele>
        <time>2021-12-27T12:21:57.220Z</time>
      </trkpt>
      <trkpt lat="45.75933" lon="6.53617">
        <ele>1660</ele>
        <time>2021-12-27T12:23:05.280Z</time>
      </trkpt>
      <trkpt lat="45.75922" lon="6.5359">
        <ele>1659</ele>
        <time>2021-12-27T12:23:29.390Z</time>
      </trkpt>
      <trkpt lat="45.75945" lon="6.53576">
        <ele>1659</ele>
        <time>2021-12-27T12:23:57.484Z</time>
      </trkpt>
      <trkpt lat="45.75972" lon="6.53511">
        <ele>1659</ele>
        <time>2021-12-27T12:24:56.314Z</time>
      </trkpt>
      <trkpt lat="45.75992" lon="6.53478">
        <ele>1659</ele>
        <time>2021-12-27T12:25:30.116Z</time>
      </trkpt>
      <trkpt lat="45.7599" lon="6.53462">
        <ele>1659</ele>
        <time>2021-12-27T12:25:42.679Z</time>
      </trkpt>
      <trkpt lat="45.75996" lon="6.5343">
        <ele>1659</ele>
        <time>2021-12-27T12:26:08.152Z</time>
      </trkpt>
      <trkpt lat="45.76038" lon="6.53383">
        <ele>1657</ele>
        <time>2021-12-27T12:27:07.872Z</time>
      </trkpt>
      <trkpt lat="45.76033" lon="6.53358">
        <ele>1657</ele>
        <time>2021-12-27T12:27:28.767Z</time>
      </trkpt>
      <trkpt lat="45.76042" lon="6.5337">
        <ele>1657</ele>
        <time>2021-12-27T12:27:42.395Z</time>
      </trkpt>
    </trkseg>
  </trk>
</gpx>